sensor_id;sensor_type;location;lat;lon;timestamp;temperature;humidity
19292;DHT22;9779;51.756;7.450;2022-07-05T00:00:48;18.50;99.90
19292;DHT22;9779;51.756;7.450;2022-07-05T00:03:13;18.40;99.90
19292;DHT22;9779;51.756;7.450;2022-07-05T00:05:39;18.40;99.90
19292;DHT22;9779;51.756;7.450;2022-07-05T00:08:06;18.40;99.90
19292;DHT22;9779;51.756;7.450;2022-07-05T00:10:33;18.30;99.90
19292;DHT22;9779;51.756;7.450;2022-07-05T00:12:59;18.30;99.90
19292;DHT22;9779;51.756;7.450;2022-07-05T00:15:24;18.20;99.90
19292;DHT22;9779;51.756;7.450;2022-07-05T00:17:50;18.20;99.90
19292;DHT22;9779;51.756;7.450;2022-07-05T00:20:16;18.20;99.90
19292;DHT22;9779;51.756;7.450;2022-07-05T00:22:42;18.20;99.90
19292;DHT22;9779;51.756;7.450;2022-07-05T00:25:08;18.10;99.90
19292;DHT22;9779;51.756;7.450;2022-07-05T00:27:33;18.10;99.90
19292;DHT22;9779;51.756;7.450;2022-07-05T00:29:59;18.00;99.90
19292;DHT22;9779;51.756;7.450;2022-07-05T00:32:24;18.00;99.90
19292;DHT22;9779;51.756;7.450;2022-07-05T00:34:50;18.00;99.90
19292;DHT22;9779;51.756;7.450;2022-07-05T00:37:15;18.00;99.90
19292;DHT22;9779;51.756;7.450;2022-07-05T00:39:41;17.90;99.90
19292;DHT22;9779;51.756;7.450;2022-07-05T00:42:07;17.90;99.90
19292;DHT22;9779;51.756;7.450;2022-07-05T00:44:35;17.90;99.90
19292;DHT22;9779;51.756;7.450;2022-07-05T00:47:02;17.90;99.90
19292;DHT22;9779;51.756;7.450;2022-07-05T00:49:29;17.90;99.90
19292;DHT22;9779;51.756;7.450;2022-07-05T00:51:54;17.90;99.90
19292;DHT22;9779;51.756;7.450;2022-07-05T00:54:20;17.80;99.90
19292;DHT22;9779;51.756;7.450;2022-07-05T00:56:46;17.80;99.90
19292;DHT22;9779;51.756;7.450;2022-07-05T00:59:12;17.80;99.90
19292;DHT22;9779;51.756;7.450;2022-07-05T01:01:38;17.80;99.90
19292;DHT22;9779;51.756;7.450;2022-07-05T01:04:04;17.70;99.90
19292;DHT22;9779;51.756;7.450;2022-07-05T01:06:29;17.60;99.90
19292;DHT22;9779;51.756;7.450;2022-07-05T01:08:55;17.50;99.90
19292;DHT22;9779;51.756;7.450;2022-07-05T01:11:20;17.60;99.90
19292;DHT22;9779;51.756;7.450;2022-07-05T01:13:46;17.60;99.90
19292;DHT22;9779;51.756;7.450;2022-07-05T01:16:13;17.60;99.90
19292;DHT22;9779;51.756;7.450;2022-07-05T01:18:38;17.60;99.90
19292;DHT22;9779;51.756;7.450;2022-07-05T01:21:04;17.60;99.90
19292;DHT22;9779;51.756;7.450;2022-07-05T01:23:31;17.60;99.90
19292;DHT22;9779;51.756;7.450;2022-07-05T01:25:59;17.60;99.90
19292;DHT22;9779;51.756;7.450;2022-07-05T01:28:25;17.60;99.90
19292;DHT22;9779;51.756;7.450;2022-07-05T01:30:51;17.50;99.90
19292;DHT22;9779;51.756;7.450;2022-07-05T01:33:17;17.50;99.90
19292;DHT22;9779;51.756;7.450;2022-07-05T01:35:43;17.50;99.90
19292;DHT22;9779;51.756;7.450;2022-07-05T01:38:11;17.50;99.90
19292;DHT22;9779;51.756;7.450;2022-07-05T01:40:36;17.50;99.90
19292;DHT22;9779;51.756;7.450;2022-07-05T01:43:03;17.50;99.90
19292;DHT22;9779;51.756;7.450;2022-07-05T01:45:28;17.50;99.90
19292;DHT22;9779;51.756;7.450;2022-07-05T01:48:12;17.40;99.90
19292;DHT22;9779;51.756;7.450;2022-07-05T01:50:45;17.40;99.90
19292;DHT22;9779;51.756;7.450;2022-07-05T01:53:24;17.40;99.90
19292;DHT22;9779;51.756;7.450;2022-07-05T01:55:53;17.30;99.90
19292;DHT22;9779;51.756;7.450;2022-07-05T01:58:21;17.30;99.90
19292;DHT22;9779;51.756;7.450;2022-07-05T02:00:49;17.30;99.90
19292;DHT22;9779;51.756;7.450;2022-07-05T02:03:16;17.20;99.90
19292;DHT22;9779;51.756;7.450;2022-07-05T02:05:43;17.20;99.90
19292;DHT22;9779;51.756;7.450;2022-07-05T02:08:09;17.10;99.90
19292;DHT22;9779;51.756;7.450;2022-07-05T02:10:37;17.10;99.90
19292;DHT22;9779;51.756;7.450;2022-07-05T02:13:03;17.10;99.90
19292;DHT22;9779;51.756;7.450;2022-07-05T02:15:37;17.00;99.90
19292;DHT22;9779;51.756;7.450;2022-07-05T02:18:04;17.00;99.90
19292;DHT22;9779;51.756;7.450;2022-07-05T02:20:32;16.90;99.90
19292;DHT22;9779;51.756;7.450;2022-07-05T02:22:58;16.90;99.90
19292;DHT22;9779;51.756;7.450;2022-07-05T02:25:24;16.80;99.90
19292;DHT22;9779;51.756;7.450;2022-07-05T02:27:51;16.80;99.90
19292;DHT22;9779;51.756;7.450;2022-07-05T02:30:17;16.80;99.90
19292;DHT22;9779;51.756;7.450;2022-07-05T02:32:43;16.80;99.90
19292;DHT22;9779;51.756;7.450;2022-07-05T02:35:10;16.80;99.90
19292;DHT22;9779;51.756;7.450;2022-07-05T02:37:36;16.70;99.90
19292;DHT22;9779;51.756;7.450;2022-07-05T02:40:03;16.70;99.90
19292;DHT22;9779;51.756;7.450;2022-07-05T02:42:29;16.70;99.90
19292;DHT22;9779;51.756;7.450;2022-07-05T02:44:55;16.70;99.90
19292;DHT22;9779;51.756;7.450;2022-07-05T02:47:21;16.60;99.90
19292;DHT22;9779;51.756;7.450;2022-07-05T02:49:46;16.50;99.90
19292;DHT22;9779;51.756;7.450;2022-07-05T02:52:12;16.50;99.90
19292;DHT22;9779;51.756;7.450;2022-07-05T02:54:37;16.50;99.90
19292;DHT22;9779;51.756;7.450;2022-07-05T02:57:05;16.50;99.90
19292;DHT22;9779;51.756;7.450;2022-07-05T02:59:30;16.50;99.90
19292;DHT22;9779;51.756;7.450;2022-07-05T03:01:56;16.50;99.90
19292;DHT22;9779;51.756;7.450;2022-07-05T03:04:22;16.50;99.90
19292;DHT22;9779;51.756;7.450;2022-07-05T03:06:47;16.50;99.90
19292;DHT22;9779;51.756;7.450;2022-07-05T03:09:13;16.50;99.90
19292;DHT22;9779;51.756;7.450;2022-07-05T03:11:38;16.20;99.90
19292;DHT22;9779;51.756;7.450;2022-07-05T03:14:04;16.20;99.90
19292;DHT22;9779;51.756;7.450;2022-07-05T03:16:29;16.30;99.90
19292;DHT22;9779;51.756;7.450;2022-07-05T03:18:55;16.20;99.90
19292;DHT22;9779;51.756;7.450;2022-07-05T03:21:21;16.30;99.90
19292;DHT22;9779;51.756;7.450;2022-07-05T03:23:47;16.30;99.90
19292;DHT22;9779;51.756;7.450;2022-07-05T03:26:12;16.30;99.90
19292;DHT22;9779;51.756;7.450;2022-07-05T03:28:38;16.30;99.90
19292;DHT22;9779;51.756;7.450;2022-07-05T03:31:04;16.30;99.90
19292;DHT22;9779;51.756;7.450;2022-07-05T03:33:29;16.30;99.90
19292;DHT22;9779;51.756;7.450;2022-07-05T03:35:55;16.30;99.90
19292;DHT22;9779;51.756;7.450;2022-07-05T03:38:20;16.20;99.90
19292;DHT22;9779;51.756;7.450;2022-07-05T03:40:46;16.20;99.90
19292;DHT22;9779;51.756;7.450;2022-07-05T03:43:11;16.20;99.90
19292;DHT22;9779;51.756;7.450;2022-07-05T03:45:37;16.20;99.90
19292;DHT22;9779;51.756;7.450;2022-07-05T03:48:03;16.20;99.90
19292;DHT22;9779;51.756;7.450;2022-07-05T03:50:28;16.20;99.90
19292;DHT22;9779;51.756;7.450;2022-07-05T03:52:54;16.10;99.90
19292;DHT22;9779;51.756;7.450;2022-07-05T03:55:20;16.10;99.90
19292;DHT22;9779;51.756;7.450;2022-07-05T03:57:45;16.10;99.90
19292;DHT22;9779;51.756;7.450;2022-07-05T04:00:13;16.00;99.90
19292;DHT22;9779;51.756;7.450;2022-07-05T04:02:39;16.00;99.90
19292;DHT22;9779;51.756;7.450;2022-07-05T04:05:05;16.00;99.90
19292;DHT22;9779;51.756;7.450;2022-07-05T04:07:31;16.00;99.90
19292;DHT22;9779;51.756;7.450;2022-07-05T04:09:56;16.00;99.90
19292;DHT22;9779;51.756;7.450;2022-07-05T04:12:22;15.90;99.90
19292;DHT22;9779;51.756;7.450;2022-07-05T04:14:47;15.90;99.90
19292;DHT22;9779;51.756;7.450;2022-07-05T04:17:13;15.90;99.90
19292;DHT22;9779;51.756;7.450;2022-07-05T04:19:38;15.90;99.90
19292;DHT22;9779;51.756;7.450;2022-07-05T04:22:04;15.90;99.90
19292;DHT22;9779;51.756;7.450;2022-07-05T04:24:30;15.90;99.90
19292;DHT22;9779;51.756;7.450;2022-07-05T04:26:55;15.90;99.90
19292;DHT22;9779;51.756;7.450;2022-07-05T04:29:21;15.80;99.90
19292;DHT22;9779;51.756;7.450;2022-07-05T04:31:47;15.90;99.90
19292;DHT22;9779;51.756;7.450;2022-07-05T04:34:12;15.80;99.90
19292;DHT22;9779;51.756;7.450;2022-07-05T04:36:38;15.80;99.90
19292;DHT22;9779;51.756;7.450;2022-07-05T04:39:07;15.80;99.90
19292;DHT22;9779;51.756;7.450;2022-07-05T04:41:33;15.80;99.90
19292;DHT22;9779;51.756;7.450;2022-07-05T04:43:59;15.80;99.90
19292;DHT22;9779;51.756;7.450;2022-07-05T04:46:25;15.80;99.90
19292;DHT22;9779;51.756;7.450;2022-07-05T04:48:50;15.70;99.90
19292;DHT22;9779;51.756;7.450;2022-07-05T04:51:16;15.70;99.90
19292;DHT22;9779;51.756;7.450;2022-07-05T04:53:42;15.70;99.90
19292;DHT22;9779;51.756;7.450;2022-07-05T04:56:07;15.60;99.90
19292;DHT22;9779;51.756;7.450;2022-07-05T04:58:33;15.70;99.90
19292;DHT22;9779;51.756;7.450;2022-07-05T05:00:59;15.70;99.90
19292;DHT22;9779;51.756;7.450;2022-07-05T05:03:24;15.70;99.90
19292;DHT22;9779;51.756;7.450;2022-07-05T05:05:50;15.70;99.90
19292;DHT22;9779;51.756;7.450;2022-07-05T05:08:16;15.80;99.90
19292;DHT22;9779;51.756;7.450;2022-07-05T05:10:41;15.80;99.90
19292;DHT22;9779;51.756;7.450;2022-07-05T05:13:07;15.80;99.90
19292;DHT22;9779;51.756;7.450;2022-07-05T05:15:32;15.80;99.90
19292;DHT22;9779;51.756;7.450;2022-07-05T05:17:58;15.80;99.90
19292;DHT22;9779;51.756;7.450;2022-07-05T05:20:23;15.80;99.90
19292;DHT22;9779;51.756;7.450;2022-07-05T05:22:49;15.90;99.90
19292;DHT22;9779;51.756;7.450;2022-07-05T05:25:15;15.90;99.90
19292;DHT22;9779;51.756;7.450;2022-07-05T05:27:45;15.90;99.90
19292;DHT22;9779;51.756;7.450;2022-07-05T05:30:12;16.00;99.90
19292;DHT22;9779;51.756;7.450;2022-07-05T05:32:38;16.10;99.90
19292;DHT22;9779;51.756;7.450;2022-07-05T05:35:04;16.20;99.90
19292;DHT22;9779;51.756;7.450;2022-07-05T05:37:30;16.30;99.90
19292;DHT22;9779;51.756;7.450;2022-07-05T05:39:55;16.30;99.90
19292;DHT22;9779;51.756;7.450;2022-07-05T05:42:21;16.40;99.90
19292;DHT22;9779;51.756;7.450;2022-07-05T05:44:47;16.50;99.90
19292;DHT22;9779;51.756;7.450;2022-07-05T05:47:13;16.50;99.90
19292;DHT22;9779;51.756;7.450;2022-07-05T05:49:38;16.50;99.90
19292;DHT22;9779;51.756;7.450;2022-07-05T05:52:04;16.50;99.90
19292;DHT22;9779;51.756;7.450;2022-07-05T05:54:29;16.50;99.90
19292;DHT22;9779;51.756;7.450;2022-07-05T05:56:55;16.50;99.90
19292;DHT22;9779;51.756;7.450;2022-07-05T05:59:20;16.60;99.90
19292;DHT22;9779;51.756;7.450;2022-07-05T06:01:46;16.60;99.90
19292;DHT22;9779;51.756;7.450;2022-07-05T06:04:11;16.70;99.90
19292;DHT22;9779;51.756;7.450;2022-07-05T06:06:37;16.70;99.90
19292;DHT22;9779;51.756;7.450;2022-07-05T06:09:03;16.70;99.90
19292;DHT22;9779;51.756;7.450;2022-07-05T06:11:28;16.90;99.90
19292;DHT22;9779;51.756;7.450;2022-07-05T06:13:54;16.90;99.90
19292;DHT22;9779;51.756;7.450;2022-07-05T06:16:19;17.00;99.90
19292;DHT22;9779;51.756;7.450;2022-07-05T06:18:45;17.10;99.90
19292;DHT22;9779;51.756;7.450;2022-07-05T06:21:10;17.20;99.90
19292;DHT22;9779;51.756;7.450;2022-07-05T06:23:36;17.20;99.90
19292;DHT22;9779;51.756;7.450;2022-07-05T06:26:02;17.20;99.90
19292;DHT22;9779;51.756;7.450;2022-07-05T06:28:27;17.20;99.90
19292;DHT22;9779;51.756;7.450;2022-07-05T06:30:53;17.30;99.90
19292;DHT22;9779;51.756;7.450;2022-07-05T06:33:19;17.40;99.90
19292;DHT22;9779;51.756;7.450;2022-07-05T06:35:45;17.40;99.90
19292;DHT22;9779;51.756;7.450;2022-07-05T06:38:11;17.50;99.90
19292;DHT22;9779;51.756;7.450;2022-07-05T06:40:39;17.50;99.90
19292;DHT22;9779;51.756;7.450;2022-07-05T06:43:08;17.60;99.90
19292;DHT22;9779;51.756;7.450;2022-07-05T06:45:33;17.70;99.90
19292;DHT22;9779;51.756;7.450;2022-07-05T06:48:07;17.80;99.90
19292;DHT22;9779;51.756;7.450;2022-07-05T06:50:35;17.90;99.90
19292;DHT22;9779;51.756;7.450;2022-07-05T06:53:05;18.00;99.90
19292;DHT22;9779;51.756;7.450;2022-07-05T06:55:31;18.10;99.90
19292;DHT22;9779;51.756;7.450;2022-07-05T07:00:23;18.10;99.90
19292;DHT22;9779;51.756;7.450;2022-07-05T07:02:49;18.10;99.90
19292;DHT22;9779;51.756;7.450;2022-07-05T07:05:14;18.20;99.90
19292;DHT22;9779;51.756;7.450;2022-07-05T07:07:40;18.10;99.90
19292;DHT22;9779;51.756;7.450;2022-07-05T07:10:24;18.10;99.90
19292;DHT22;9779;51.756;7.450;2022-07-05T07:12:49;18.20;99.90
19292;DHT22;9779;51.756;7.450;2022-07-05T07:15:15;18.20;99.90
19292;DHT22;9779;51.756;7.450;2022-07-05T07:17:41;18.30;99.90
19292;DHT22;9779;51.756;7.450;2022-07-05T07:20:07;18.40;99.90
19292;DHT22;9779;51.756;7.450;2022-07-05T07:22:33;18.50;99.90
19292;DHT22;9779;51.756;7.450;2022-07-05T07:24:58;18.70;99.90
19292;DHT22;9779;51.756;7.450;2022-07-05T07:27:24;18.70;99.90
19292;DHT22;9779;51.756;7.450;2022-07-05T07:29:49;18.80;99.90
19292;DHT22;9779;51.756;7.450;2022-07-05T07:32:15;18.90;99.90
19292;DHT22;9779;51.756;7.450;2022-07-05T07:34:40;18.90;99.90
19292;DHT22;9779;51.756;7.450;2022-07-05T07:37:06;18.90;99.90
19292;DHT22;9779;51.756;7.450;2022-07-05T07:39:34;19.00;99.90
19292;DHT22;9779;51.756;7.450;2022-07-05T07:41:59;19.10;99.90
19292;DHT22;9779;51.756;7.450;2022-07-05T07:44:25;19.20;99.90
19292;DHT22;9779;51.756;7.450;2022-07-05T07:46:51;19.40;99.90
19292;DHT22;9779;51.756;7.450;2022-07-05T07:49:17;19.50;99.90
19292;DHT22;9779;51.756;7.450;2022-07-05T07:51:43;19.60;99.90
19292;DHT22;9779;51.756;7.450;2022-07-05T07:54:09;19.60;99.90
19292;DHT22;9779;51.756;7.450;2022-07-05T07:56:35;19.50;99.90
19292;DHT22;9779;51.756;7.450;2022-07-05T07:59:00;19.40;99.90
19292;DHT22;9779;51.756;7.450;2022-07-05T08:01:26;19.50;99.90
19292;DHT22;9779;51.756;7.450;2022-07-05T08:03:51;19.50;99.90
19292;DHT22;9779;51.756;7.450;2022-07-05T08:06:17;19.50;99.90
19292;DHT22;9779;51.756;7.450;2022-07-05T08:08:44;19.40;99.90
19292;DHT22;9779;51.756;7.450;2022-07-05T08:11:10;19.40;99.90
19292;DHT22;9779;51.756;7.450;2022-07-05T08:13:36;19.40;99.90
19292;DHT22;9779;51.756;7.450;2022-07-05T08:16:03;19.30;99.90
19292;DHT22;9779;51.756;7.450;2022-07-05T08:18:31;19.40;99.90
19292;DHT22;9779;51.756;7.450;2022-07-05T08:21:15;19.40;99.90
19292;DHT22;9779;51.756;7.450;2022-07-05T08:24:00;19.50;99.90
19292;DHT22;9779;51.756;7.450;2022-07-05T08:26:26;19.60;99.90
19292;DHT22;9779;51.756;7.450;2022-07-05T08:28:52;19.90;99.90
19292;DHT22;9779;51.756;7.450;2022-07-05T08:31:18;20.00;99.90
19292;DHT22;9779;51.756;7.450;2022-07-05T08:33:44;20.20;99.90
19292;DHT22;9779;51.756;7.450;2022-07-05T08:36:09;20.30;99.90
19292;DHT22;9779;51.756;7.450;2022-07-05T08:38:35;20.40;99.90
19292;DHT22;9779;51.756;7.450;2022-07-05T08:41:02;20.40;99.90
19292;DHT22;9779;51.756;7.450;2022-07-05T08:43:28;20.50;99.90
19292;DHT22;9779;51.756;7.450;2022-07-05T08:45:56;20.50;99.90
19292;DHT22;9779;51.756;7.450;2022-07-05T08:48:24;20.60;99.90
19292;DHT22;9779;51.756;7.450;2022-07-05T08:50:53;20.80;99.90
19292;DHT22;9779;51.756;7.450;2022-07-05T08:53:21;21.00;99.90
19292;DHT22;9779;51.756;7.450;2022-07-05T08:55:47;21.00;99.90
19292;DHT22;9779;51.756;7.450;2022-07-05T08:58:13;21.00;99.90
19292;DHT22;9779;51.756;7.450;2022-07-05T09:00:42;20.90;99.90
19292;DHT22;9779;51.756;7.450;2022-07-05T09:03:08;21.00;99.90
19292;DHT22;9779;51.756;7.450;2022-07-05T09:05:41;21.00;99.90
19292;DHT22;9779;51.756;7.450;2022-07-05T09:08:10;21.20;99.90
19292;DHT22;9779;51.756;7.450;2022-07-05T09:10:38;21.50;99.90
19292;DHT22;9779;51.756;7.450;2022-07-05T09:13:05;21.90;99.90
19292;DHT22;9779;51.756;7.450;2022-07-05T09:15:30;21.90;99.90
19292;DHT22;9779;51.756;7.450;2022-07-05T09:17:56;22.00;99.90
19292;DHT22;9779;51.756;7.450;2022-07-05T09:20:22;21.90;99.90
19292;DHT22;9779;51.756;7.450;2022-07-05T09:22:52;21.70;99.90
19292;DHT22;9779;51.756;7.450;2022-07-05T09:27:59;21.70;99.90
19292;DHT22;9779;51.756;7.450;2022-07-05T09:30:33;22.00;99.90
19292;DHT22;9779;51.756;7.450;2022-07-05T09:33:01;22.10;99.90
19292;DHT22;9779;51.756;7.450;2022-07-05T09:35:31;22.30;99.90
19292;DHT22;9779;51.756;7.450;2022-07-05T09:37:56;22.60;99.90
19292;DHT22;9779;51.756;7.450;2022-07-05T09:40:22;22.50;99.20
19292;DHT22;9779;51.756;7.450;2022-07-05T09:42:48;22.30;99.80
19292;DHT22;9779;51.756;7.450;2022-07-05T09:45:22;22.60;99.90
19292;DHT22;9779;51.756;7.450;2022-07-05T09:47:49;22.70;99.90
19292;DHT22;9779;51.756;7.450;2022-07-05T09:50:14;22.80;99.90
19292;DHT22;9779;51.756;7.450;2022-07-05T09:52:41;22.90;99.90
19292;DHT22;9779;51.756;7.450;2022-07-05T09:55:15;22.90;99.90
19292;DHT22;9779;51.756;7.450;2022-07-05T09:57:45;22.80;99.90
19292;DHT22;9779;51.756;7.450;2022-07-05T10:00:18;22.40;99.90
19292;DHT22;9779;51.756;7.450;2022-07-05T10:02:49;22.20;99.90
19292;DHT22;9779;51.756;7.450;2022-07-05T10:05:16;22.00;99.90
19292;DHT22;9779;51.756;7.450;2022-07-05T10:07:44;21.90;99.90
19292;DHT22;9779;51.756;7.450;2022-07-05T10:10:12;21.90;99.90
19292;DHT22;9779;51.756;7.450;2022-07-05T10:12:39;22.00;99.90
19292;DHT22;9779;51.756;7.450;2022-07-05T10:15:08;22.30;99.50
19292;DHT22;9779;51.756;7.450;2022-07-05T10:17:37;22.60;98.50
19292;DHT22;9779;51.756;7.450;2022-07-05T10:20:05;23.00;97.60
19292;DHT22;9779;51.756;7.450;2022-07-05T10:22:34;23.00;96.70
19292;DHT22;9779;51.756;7.450;2022-07-05T10:25:00;23.00;97.00
19292;DHT22;9779;51.756;7.450;2022-07-05T10:27:27;22.90;97.40
19292;DHT22;9779;51.756;7.450;2022-07-05T10:29:55;22.60;97.60
19292;DHT22;9779;51.756;7.450;2022-07-05T10:32:22;22.40;98.10
19292;DHT22;9779;51.756;7.450;2022-07-05T10:34:49;22.30;98.20
19292;DHT22;9779;51.756;7.450;2022-07-05T10:37:17;22.40;99.60
19292;DHT22;9779;51.756;7.450;2022-07-05T10:39:42;22.40;98.00
19292;DHT22;9779;51.756;7.450;2022-07-05T10:42:08;22.50;97.40
19292;DHT22;9779;51.756;7.450;2022-07-05T10:44:34;22.50;97.50
19292;DHT22;9779;51.756;7.450;2022-07-05T10:47:10;22.70;97.10
19292;DHT22;9779;51.756;7.450;2022-07-05T10:49:36;22.90;95.40
19292;DHT22;9779;51.756;7.450;2022-07-05T10:52:03;22.90;95.20
19292;DHT22;9779;51.756;7.450;2022-07-05T10:54:29;22.80;94.90
19292;DHT22;9779;51.756;7.450;2022-07-05T10:57:20;22.70;94.30
19292;DHT22;9779;51.756;7.450;2022-07-05T11:00:07;22.70;95.20
19292;DHT22;9779;51.756;7.450;2022-07-05T11:02:33;23.00;94.10
19292;DHT22;9779;51.756;7.450;2022-07-05T11:04:59;23.30;92.00
19292;DHT22;9779;51.756;7.450;2022-07-05T11:07:57;23.20;92.00
19292;DHT22;9779;51.756;7.450;2022-07-05T11:10:22;22.80;93.80
19292;DHT22;9779;51.756;7.450;2022-07-05T11:12:48;22.50;94.80
19292;DHT22;9779;51.756;7.450;2022-07-05T11:15:13;22.40;95.00
19292;DHT22;9779;51.756;7.450;2022-07-05T11:17:39;22.50;96.20
19292;DHT22;9779;51.756;7.450;2022-07-05T11:20:13;22.50;94.60
19292;DHT22;9779;51.756;7.450;2022-07-05T11:22:42;22.50;95.50
19292;DHT22;9779;51.756;7.450;2022-07-05T11:25:25;22.30;95.00
19292;DHT22;9779;51.756;7.450;2022-07-05T11:28:20;22.50;94.40
19292;DHT22;9779;51.756;7.450;2022-07-05T11:30:58;22.70;94.60
19292;DHT22;9779;51.756;7.450;2022-07-05T11:33:28;23.20;93.70
19292;DHT22;9779;51.756;7.450;2022-07-05T11:35:55;23.60;94.80
19292;DHT22;9779;51.756;7.450;2022-07-05T11:38:21;24.10;92.40
19292;DHT22;9779;51.756;7.450;2022-07-05T11:40:47;24.00;90.20
19292;DHT22;9779;51.756;7.450;2022-07-05T11:43:13;23.90;90.50
19292;DHT22;9779;51.756;7.450;2022-07-05T11:45:38;23.80;92.10
19292;DHT22;9779;51.756;7.450;2022-07-05T11:48:04;23.70;92.50
19292;DHT22;9779;51.756;7.450;2022-07-05T11:50:33;23.70;93.30
19292;DHT22;9779;51.756;7.450;2022-07-05T11:53:02;23.60;93.30
19292;DHT22;9779;51.756;7.450;2022-07-05T11:55:29;23.40;92.90
19292;DHT22;9779;51.756;7.450;2022-07-05T11:57:56;23.40;92.80
19292;DHT22;9779;51.756;7.450;2022-07-05T12:00:27;23.40;91.80
19292;DHT22;9779;51.756;7.450;2022-07-05T12:02:53;23.50;93.60
19292;DHT22;9779;51.756;7.450;2022-07-05T12:05:19;23.60;92.50
19292;DHT22;9779;51.756;7.450;2022-07-05T12:07:49;23.60;92.00
19292;DHT22;9779;51.756;7.450;2022-07-05T12:10:16;23.60;93.20
19292;DHT22;9779;51.756;7.450;2022-07-05T12:13:08;23.40;91.90
19292;DHT22;9779;51.756;7.450;2022-07-05T12:15:34;23.30;92.60
19292;DHT22;9779;51.756;7.450;2022-07-05T12:18:02;23.70;93.90
19292;DHT22;9779;51.756;7.450;2022-07-05T12:20:32;23.90;92.10
19292;DHT22;9779;51.756;7.450;2022-07-05T12:22:59;24.00;92.10
19292;DHT22;9779;51.756;7.450;2022-07-05T12:25:26;24.20;92.10
19292;DHT22;9779;51.756;7.450;2022-07-05T12:27:54;24.70;91.30
19292;DHT22;9779;51.756;7.450;2022-07-05T12:30:20;24.70;88.90
19292;DHT22;9779;51.756;7.450;2022-07-05T12:35:32;24.80;90.00
19292;DHT22;9779;51.756;7.450;2022-07-05T12:38:03;24.80;91.50
19292;DHT22;9779;51.756;7.450;2022-07-05T12:40:29;24.60;90.60
19292;DHT22;9779;51.756;7.450;2022-07-05T12:43:11;24.50;91.40
19292;DHT22;9779;51.756;7.450;2022-07-05T12:45:41;24.40;90.20
19292;DHT22;9779;51.756;7.450;2022-07-05T12:48:08;24.30;91.00
19292;DHT22;9779;51.756;7.450;2022-07-05T12:50:51;23.90;90.70
19292;DHT22;9779;51.756;7.450;2022-07-05T12:53:18;23.90;91.40
19292;DHT22;9779;51.756;7.450;2022-07-05T12:56:04;24.40;92.50
19292;DHT22;9779;51.756;7.450;2022-07-05T12:58:51;24.90;88.00
19292;DHT22;9779;51.756;7.450;2022-07-05T13:01:30;25.50;87.40
19292;DHT22;9779;51.756;7.450;2022-07-05T13:12:16;26.40;78.20
19292;DHT22;9779;51.756;7.450;2022-07-05T13:14:46;26.20;79.50
19292;DHT22;9779;51.756;7.450;2022-07-05T13:17:14;25.70;80.50
19292;DHT22;9779;51.756;7.450;2022-07-05T13:19:41;25.30;81.10
19292;DHT22;9779;51.756;7.450;2022-07-05T13:22:07;25.00;83.40
19292;DHT22;9779;51.756;7.450;2022-07-05T13:24:33;25.10;83.30
19292;DHT22;9779;51.756;7.450;2022-07-05T13:26:59;25.10;82.90
19292;DHT22;9779;51.756;7.450;2022-07-05T13:29:25;25.40;85.70
19292;DHT22;9779;51.756;7.450;2022-07-05T13:31:51;25.70;82.60
19292;DHT22;9779;51.756;7.450;2022-07-05T13:34:17;25.50;81.80
19292;DHT22;9779;51.756;7.450;2022-07-05T13:36:43;25.60;82.80
19292;DHT22;9779;51.756;7.450;2022-07-05T13:39:10;25.60;80.10
19292;DHT22;9779;51.756;7.450;2022-07-05T13:41:35;25.30;79.80
19292;DHT22;9779;51.756;7.450;2022-07-05T13:44:01;24.90;79.80
19292;DHT22;9779;51.756;7.450;2022-07-05T13:46:27;24.80;80.90
19292;DHT22;9779;51.756;7.450;2022-07-05T13:48:52;24.90;79.40
19292;DHT22;9779;51.756;7.450;2022-07-05T13:51:18;24.80;79.20
19292;DHT22;9779;51.756;7.450;2022-07-05T13:53:44;24.70;80.30
19292;DHT22;9779;51.756;7.450;2022-07-05T13:56:09;24.70;82.10
19292;DHT22;9779;51.756;7.450;2022-07-05T13:58:35;24.70;81.60
19292;DHT22;9779;51.756;7.450;2022-07-05T14:01:01;25.00;81.60
19292;DHT22;9779;51.756;7.450;2022-07-05T14:03:28;25.10;81.70
19292;DHT22;9779;51.756;7.450;2022-07-05T14:05:53;25.10;80.70
19292;DHT22;9779;51.756;7.450;2022-07-05T14:08:19;25.00;80.90
19292;DHT22;9779;51.756;7.450;2022-07-05T14:10:51;24.80;80.80
19292;DHT22;9779;51.756;7.450;2022-07-05T14:13:21;24.80;79.30
19292;DHT22;9779;51.756;7.450;2022-07-05T14:15:48;24.70;80.20
19292;DHT22;9779;51.756;7.450;2022-07-05T14:18:15;24.80;82.00
19292;DHT22;9779;51.756;7.450;2022-07-05T14:20:41;25.10;83.80
19292;DHT22;9779;51.756;7.450;2022-07-05T14:23:08;25.30;80.30
19292;DHT22;9779;51.756;7.450;2022-07-05T14:25:34;25.60;80.00
19292;DHT22;9779;51.756;7.450;2022-07-05T14:28:00;25.60;76.00
19292;DHT22;9779;51.756;7.450;2022-07-05T14:30:26;25.20;77.60
19292;DHT22;9779;51.756;7.450;2022-07-05T14:32:53;24.90;79.40
19292;DHT22;9779;51.756;7.450;2022-07-05T14:35:19;24.80;80.70
19292;DHT22;9779;51.756;7.450;2022-07-05T14:37:45;25.00;81.70
19292;DHT22;9779;51.756;7.450;2022-07-05T14:40:10;25.20;79.70
19292;DHT22;9779;51.756;7.450;2022-07-05T14:42:36;25.40;81.70
19292;DHT22;9779;51.756;7.450;2022-07-05T14:45:01;25.50;78.70
19292;DHT22;9779;51.756;7.450;2022-07-05T14:47:27;25.20;78.50
19292;DHT22;9779;51.756;7.450;2022-07-05T14:49:53;24.90;78.70
19292;DHT22;9779;51.756;7.450;2022-07-05T14:52:20;24.90;80.80
19292;DHT22;9779;51.756;7.450;2022-07-05T14:54:46;25.20;79.00
19292;DHT22;9779;51.756;7.450;2022-07-05T14:57:12;25.70;78.80
19292;DHT22;9779;51.756;7.450;2022-07-05T14:59:37;25.70;79.80
19292;DHT22;9779;51.756;7.450;2022-07-05T15:02:03;25.40;78.30
19292;DHT22;9779;51.756;7.450;2022-07-05T15:04:31;25.40;77.80
19292;DHT22;9779;51.756;7.450;2022-07-05T15:06:57;25.40;76.00
19292;DHT22;9779;51.756;7.450;2022-07-05T15:09:22;25.50;77.90
19292;DHT22;9779;51.756;7.450;2022-07-05T15:11:48;25.30;75.60
19292;DHT22;9779;51.756;7.450;2022-07-05T15:14:13;25.30;77.50
19292;DHT22;9779;51.756;7.450;2022-07-05T15:16:39;24.90;78.40
19292;DHT22;9779;51.756;7.450;2022-07-05T15:19:08;24.60;82.10
19292;DHT22;9779;51.756;7.450;2022-07-05T15:21:34;24.30;83.80
19292;DHT22;9779;51.756;7.450;2022-07-05T15:24:00;24.20;83.60
19292;DHT22;9779;51.756;7.450;2022-07-05T15:26:27;23.90;85.20
19292;DHT22;9779;51.756;7.450;2022-07-05T15:29:04;23.80;87.20
19292;DHT22;9779;51.756;7.450;2022-07-05T15:31:30;23.70;88.70
19292;DHT22;9779;51.756;7.450;2022-07-05T15:33:57;23.60;88.60
19292;DHT22;9779;51.756;7.450;2022-07-05T15:36:23;23.40;89.70
19292;DHT22;9779;51.756;7.450;2022-07-05T15:38:51;23.40;90.10
19292;DHT22;9779;51.756;7.450;2022-07-05T15:41:16;23.30;90.80
19292;DHT22;9779;51.756;7.450;2022-07-05T15:43:42;23.20;91.00
19292;DHT22;9779;51.756;7.450;2022-07-05T15:46:07;23.10;90.80
19292;DHT22;9779;51.756;7.450;2022-07-05T15:48:33;23.20;91.60
19292;DHT22;9779;51.756;7.450;2022-07-05T15:50:58;23.30;91.30
19292;DHT22;9779;51.756;7.450;2022-07-05T15:53:27;23.30;91.50
19292;DHT22;9779;51.756;7.450;2022-07-05T15:55:52;23.30;91.40
19292;DHT22;9779;51.756;7.450;2022-07-05T15:58:28;23.30;92.00
19292;DHT22;9779;51.756;7.450;2022-07-05T16:00:54;23.40;92.60